createdAt,value
2022-12-24T06:43:03.337Z,98071.19
2022-12-24T06:46:26.516Z,98081.53
2022-12-24T06:49:48.325Z,98082.72
2022-12-24T06:53:10.764Z,98083.88
2022-12-24T06:56:32.679Z,98082.22
2022-12-24T06:59:54.579Z,98090.22
2022-12-24T07:03:16.518Z,98090.38
2022-12-24T07:06:38.544Z,98069.34
2022-12-24T07:10:00.423Z,98086.22
2022-12-24T07:13:23.312Z,98089.91
2022-12-24T07:16:50.473Z,98085.88
2022-12-24T07:20:20.623Z,98080.38
2022-12-24T07:23:42.648Z,98097.06
2022-12-24T07:27:12.354Z,98103.91
2022-12-24T07:30:34.199Z,98103.25
2022-12-24T07:33:56.024Z,98105.78
2022-12-24T07:37:17.879Z,98108.28
2022-12-24T07:40:39.800Z,98117.63
2022-12-24T07:44:02.862Z,98093.91
2022-12-24T07:47:24.774Z,98117.75
2022-12-24T07:50:49.274Z,98123.59
2022-12-24T07:54:11.410Z,98116.94
2022-12-24T07:57:33.373Z,98122.94
2022-12-24T08:01:03.785Z,98121.09
2022-12-24T08:04:27.676Z,98112.75
2022-12-24T08:07:49.446Z,98116.59
2022-12-24T08:11:13.854Z,98119.28
2022-12-24T08:14:35.774Z,98138.47
2022-12-24T08:17:57.732Z,98135.31
2022-12-24T08:21:19.565Z,98146.16
2022-12-24T08:24:41.545Z,98127.31
2022-12-24T08:28:04.415Z,98147.69
2022-12-24T08:31:26.266Z,98154.84
2022-12-24T08:34:49.165Z,98154.69
2022-12-24T08:38:11.028Z,98153.34
2022-12-24T08:41:37.832Z,98151.34
2022-12-24T08:45:00.403Z,98149.38
2022-12-24T08:48:22.407Z,98133.66
2022-12-24T08:51:52.081Z,98165.19
2022-12-24T08:55:18.134Z,98161.38
2022-12-24T08:58:40.055Z,98158.34
2022-12-24T09:02:02.565Z,98170.72
2022-12-24T09:05:31.833Z,98182.75
2022-12-24T09:09:07.632Z,98190.78
2022-12-24T09:12:29.568Z,98184.59
2022-12-24T09:15:55.693Z,98180.72
2022-12-24T09:19:17.667Z,98199.09
2022-12-24T09:22:40.761Z,98193.75
2022-12-24T09:26:15.126Z,98200.53
2022-12-24T09:29:40.473Z,98205.72
2022-12-24T09:33:04.409Z,98202.03
2022-12-24T09:36:37.133Z,98224.97
2022-12-24T09:39:59.040Z,98230.06
2022-12-24T09:43:34.041Z,98227.69
2022-12-24T09:47:01.220Z,98228.75
2022-12-24T09:50:59.059Z,98235.56
2022-12-24T09:54:47.728Z,98239.94
2022-12-24T09:58:31.320Z,98229.03
2022-12-24T10:01:55.937Z,98233.91
2022-12-24T10:05:29.383Z,98240.09
2022-12-24T10:09:13.370Z,98239.59
2022-12-24T10:13:08.012Z,98237.66
2022-12-24T10:17:10.128Z,98235.59
2022-12-24T10:20:57.002Z,98233.72
2022-12-24T10:24:32.449Z,98242.47
2022-12-24T10:28:16.845Z,98244.44
2022-12-24T10:31:56.854Z,98236.34
2022-12-24T10:35:44.977Z,98234.78
2022-12-24T10:39:25.661Z,98234.25
2022-12-24T10:42:55.584Z,98226.84
2022-12-24T10:46:36.312Z,98234.22
2022-12-24T10:50:06.755Z,98238.22
2022-12-24T10:53:40.138Z,98233.97
2022-12-24T10:57:03.250Z,98228.84
2022-12-24T11:00:33.562Z,98228.47
2022-12-24T11:04:03.560Z,98236.97
2022-12-24T11:07:32.024Z,98234.03
2022-12-24T11:11:20.311Z,98247.00
2022-12-24T11:14:59.347Z,98233.13
2022-12-24T11:19:02.704Z,98219.94
2022-12-24T11:22:32.606Z,98228.16
2022-12-24T11:25:57.021Z,98227.00
2022-12-24T11:29:27.067Z,98233.53
2022-12-24T11:33:18.863Z,98242.06
2022-12-24T11:36:40.759Z,98248.66
2022-12-24T11:40:45.490Z,98239.59
2022-12-24T11:44:12.455Z,98227.41
2022-12-24T11:47:41.586Z,98244.59
2022-12-24T11:51:18.778Z,98230.56
2022-12-24T11:55:18.699Z,98219.72
2022-12-24T11:58:53.506Z,98221.47
2022-12-24T12:02:42.680Z,98224.44
2022-12-24T12:06:23.782Z,98219.28
2022-12-24T12:09:58.909Z,98226.47
2022-12-24T12:13:33.937Z,98211.25
2022-12-24T12:17:43.610Z,98232.22
2022-12-24T12:21:14.202Z,98227.06
2022-12-24T12:24:52.736Z,98238.44
2022-12-24T12:28:44.319Z,98235.16
2022-12-24T12:32:27.629Z,98219.97
2022-12-24T12:35:54.871Z,98229.88
2022-12-24T12:39:31.452Z,98226.06
2022-12-24T12:43:14.461Z,98227.44
2022-12-24T12:47:27.030Z,98238.19
2022-12-24T12:51:26.938Z,98245.34
2022-12-24T12:55:29.468Z,98244.63
2022-12-24T12:59:08.073Z,98231.63
2022-12-24T13:03:22.939Z,98255.34
2022-12-24T13:07:17.536Z,98247.91
2022-12-24T13:11:33.692Z,98262.63
2022-12-24T13:15:14.232Z,98257.63
2022-12-24T13:19:09.540Z,98269.34
2022-12-24T13:22:37.531Z,98257.66
2022-12-24T13:26:14.136Z,98269.00
2022-12-24T13:29:53.477Z,98273.38
2022-12-24T13:33:38.321Z,98265.97
2022-12-24T13:37:04.508Z,98265.75
2022-12-24T13:40:28.370Z,98270.97
2022-12-24T13:44:20.504Z,98264.78
2022-12-24T13:47:42.640Z,98261.63
2022-12-24T13:51:26.107Z,98252.22
2022-12-24T13:55:19.566Z,98256.13
2022-12-24T13:58:50.266Z,98249.81
2022-12-24T14:02:22.647Z,98265.72
2022-12-24T14:05:44.561Z,98268.34
2022-12-24T14:09:23.141Z,98273.16
2022-12-24T14:12:52.911Z,98279.38
2022-12-24T14:16:30.589Z,98269.34
2022-12-24T14:20:02.314Z,98279.19
2022-12-24T14:23:55.186Z,98270.84
2022-12-24T14:27:50.503Z,98276.25
2022-12-24T14:31:19.426Z,98283.78
2022-12-24T14:35:15.023Z,98293.06
2022-12-24T14:38:53.623Z,98293.09
2022-12-24T14:43:09.193Z,98302.94
2022-12-24T14:46:50.773Z,98288.72
2022-12-24T14:50:39.603Z,98298.91
2022-12-24T14:54:26.086Z,98302.44
2022-12-24T14:58:26.885Z,98306.91
2022-12-24T15:01:50.816Z,98301.06
2022-12-24T15:05:19.475Z,98285.50
2022-12-24T15:08:49.785Z,98300.72
2022-12-24T15:12:13.467Z,98313.06
2022-12-24T15:15:52.035Z,98316.38
2022-12-24T15:19:36.005Z,98314.06
2022-12-24T15:22:59.386Z,98321.72
2022-12-24T15:26:24.923Z,98328.81
2022-12-24T15:30:15.218Z,98322.41
2022-12-24T15:33:38.159Z,98322.22
2022-12-24T15:37:16.745Z,98328.94
2022-12-24T15:40:38.655Z,98328.91
2022-12-24T15:44:04.158Z,98324.84
2022-12-24T15:47:52.781Z,98326.22
2022-12-24T15:51:37.976Z,98324.75
2022-12-24T15:55:03.076Z,98325.94
2022-12-24T15:58:30.995Z,98337.59
2022-12-24T16:01:55.386Z,98336.25
2022-12-24T16:05:36.130Z,98340.75
2022-12-24T16:08:58.683Z,98353.94
2022-12-24T16:12:24.982Z,98342.03
2022-12-24T16:15:56.451Z,98337.03
2022-12-24T16:19:22.893Z,98355.09
2022-12-24T16:22:47.705Z,98357.91
2022-12-24T16:26:10.635Z,98326.59
2022-12-24T16:29:32.513Z,98346.22
2022-12-24T16:32:54.347Z,98347.03
2022-12-24T16:36:16.157Z,98352.91
2022-12-24T16:39:38.069Z,98335.69
2022-12-24T16:43:18.395Z,98356.06
2022-12-24T16:46:40.262Z,98344.22
2022-12-24T16:50:06.831Z,98345.03
2022-12-24T16:53:28.648Z,98329.94
2022-12-24T16:56:50.817Z,98333.63
2022-12-24T17:00:28.844Z,98351.03
2022-12-24T17:03:50.794Z,98347.00
2022-12-24T17:07:16.246Z,98339.78
2022-12-24T17:10:41.049Z,98366.84
2022-12-24T17:14:08.974Z,98364.66
2022-12-24T17:17:32.873Z,98385.09
2022-12-24T17:21:00.762Z,98376.38
2022-12-24T17:24:22.602Z,98353.94
2022-12-24T17:27:44.503Z,98369.00
2022-12-24T17:31:10.002Z,98366.84
2022-12-24T17:34:32.009Z,98350.47
2022-12-24T17:37:53.845Z,98344.19
2022-12-24T17:41:20.371Z,98352.03
2022-12-24T17:44:42.204Z,98336.69
2022-12-24T17:48:22.201Z,98347.97
2022-12-24T17:51:45.899Z,98345.47
2022-12-24T17:55:09.101Z,98348.44
2022-12-24T17:58:31.348Z,98354.50
2022-12-24T18:01:53.295Z,98356.13
2022-12-24T18:05:25.479Z,98358.75
2022-12-24T18:08:47.991Z,98366.09
2022-12-24T18:12:10.368Z,98370.19
2022-12-24T18:15:40.069Z,98361.41
2022-12-24T18:19:04.191Z,98378.59
2022-12-24T18:22:33.111Z,98368.22
2022-12-24T18:26:12.557Z,98378.94
2022-12-24T18:29:35.117Z,98374.59
2022-12-24T18:32:57.004Z,98369.06
2022-12-24T18:36:20.662Z,98371.03
2022-12-24T18:39:44.295Z,98372.44
2022-12-24T18:43:10.190Z,98373.59
2022-12-24T18:46:34.064Z,98364.06
2022-12-24T18:50:01.138Z,98364.09
2022-12-24T18:53:23.563Z,98374.78
2022-12-24T18:56:45.405Z,98364.34
2022-12-24T19:00:26.145Z,98366.81
2022-12-24T19:03:49.216Z,98373.03
2022-12-24T19:07:11.134Z,98376.19
2022-12-24T19:10:38.325Z,98380.03
2022-12-24T19:14:01.940Z,98397.06
2022-12-24T19:17:23.885Z,98396.63
2022-12-24T19:20:54.020Z,98404.16
2022-12-24T19:24:15.870Z,98396.63
2022-12-24T19:27:37.733Z,98406.16
2022-12-24T19:31:05.833Z,98407.50
2022-12-24T19:34:28.462Z,98408.97
2022-12-24T19:37:50.337Z,98408.16
2022-12-24T19:41:19.661Z,98398.00
2022-12-24T19:44:43.573Z,98388.63
2022-12-24T19:48:05.936Z,98380.44
2022-12-24T19:51:29.413Z,98387.44
2022-12-24T19:54:53.422Z,98372.34
2022-12-24T19:58:15.339Z,98373.44
2022-12-24T20:01:37.489Z,98377.13
2022-12-24T20:05:06.715Z,98378.34
2022-12-24T20:08:30.498Z,98367.25
2022-12-24T20:11:52.421Z,98382.28
2022-12-24T20:15:14.315Z,98361.94
2022-12-24T20:19:08.287Z,98381.81
2022-12-24T20:22:30.131Z,98370.84
2022-12-24T20:26:02.105Z,98376.13
2022-12-24T20:29:24.064Z,98374.06
2022-12-24T20:32:58.306Z,98371.78
2022-12-24T20:36:23.868Z,98385.81
2022-12-24T20:39:45.765Z,98381.34
2022-12-24T20:43:13.881Z,98376.19
2022-12-24T20:46:49.118Z,98378.09
2022-12-24T20:50:11.084Z,98376.19
2022-12-24T20:53:33.343Z,98377.00
2022-12-24T20:57:01.125Z,98375.94
2022-12-24T21:00:30.395Z,98379.38
2022-12-24T21:03:54.611Z,98385.28
2022-12-24T21:07:20.613Z,98380.09
2022-12-24T21:10:46.848Z,98375.69
2022-12-24T21:14:09.822Z,98362.03
2022-12-24T21:17:31.763Z,98356.06
2022-12-24T21:20:55.252Z,98357.38
2022-12-24T21:24:19.455Z,98361.09
2022-12-24T21:27:56.764Z,98370.78
2022-12-24T21:31:18.917Z,98357.75
2022-12-24T21:34:42.812Z,98345.38
2022-12-24T21:38:15.388Z,98359.50
2022-12-24T21:41:37.308Z,98363.00
2022-12-24T21:44:59.633Z,98358.38
2022-12-24T21:48:50.991Z,98356.34
2022-12-24T21:52:12.928Z,98361.72
2022-12-24T21:55:36.850Z,98371.94
2022-12-24T21:59:01.846Z,98354.66
2022-12-24T22:02:28.897Z,98352.34
2022-12-24T22:05:59.249Z,98367.44
2022-12-24T22:09:53.084Z,98371.09
2022-12-24T22:13:20.042Z,98366.00
2022-12-24T22:16:44.258Z,98370.41
2022-12-24T22:20:09.351Z,98352.41
2022-12-24T22:23:40.457Z,98359.72
2022-12-24T22:27:15.395Z,98357.50
2022-12-24T22:30:47.424Z,98353.84
2022-12-24T22:34:45.392Z,98334.44
2022-12-24T22:38:12.833Z,98326.31
2022-12-24T22:41:54.986Z,98358.13
2022-12-24T22:45:23.114Z,98352.13
2022-12-24T22:49:02.585Z,98357.59
2022-12-24T22:52:24.824Z,98375.56
2022-12-24T22:56:15.551Z,98379.69
2022-12-24T22:59:39.096Z,98375.94
2022-12-24T23:03:01.059Z,98374.59
2022-12-24T23:06:22.969Z,98361.91
2022-12-24T23:09:44.805Z,98366.94
2022-12-24T23:13:26.223Z,98357.72
2022-12-24T23:16:48.157Z,98360.41
2022-12-24T23:20:22.497Z,98369.41
2022-12-24T23:23:52.579Z,98369.41
2022-12-24T23:27:14.525Z,98357.72
2022-12-24T23:30:37.562Z,98344.25
2022-12-24T23:33:59.553Z,98361.28
2022-12-24T23:37:29.573Z,98359.34
2022-12-24T23:41:11.480Z,98361.47
2022-12-24T23:44:33.341Z,98358.75
2022-12-24T23:47:55.143Z,98355.38
2022-12-24T23:51:23.381Z,98348.78
2022-12-24T23:54:45.566Z,98344.97
2022-12-24T23:58:15.214Z,98325.38
